Time;durP1;ratioP1;P1;durP2;ratioP2;P2;SDS_P1;SDS_P2;PMS_P1;PMS_P2;Temp;Humidity;BMP_temperature;BMP_pressure;BME280_temperature;BME280_humidity;BME280_pressure;Samples;Min_cycle;Max_cycle;Signal;HPM_P1;HPM_P2
2023/11/21 00:01:33;;;;;;;5.30;3.67;;;;;;;;;;781794;178;918986;-67
2023/11/21 00:04:00;;;;;;;17.30;3.93;;;;;;;;;;776218;178;916941;-67
2023/11/21 00:06:25;;;;;;;9.52;4.65;;;;;;;;;;776661;179;919472;-65
2023/11/21 00:08:51;;;;;;;12.10;5.13;;;;;;;;;;780197;178;918695;-64
2023/11/21 00:11:16;;;;;;;5.27;3.93;;;;;;;;;;778300;178;919376;-67
2023/11/21 00:13:43;;;;;;;7.30;3.27;;;;;;;;;;776600;178;918345;-67
2023/11/21 00:16:08;;;;;;;5.93;3.83;;;;;;;;;;778725;179;922817;-67
2023/11/21 00:18:34;;;;;;;7.87;3.90;;;;;;;;;;773928;180;816221;-66
2023/11/21 00:21:00;;;;;;;10.20;4.17;;;;;;;;;;781002;179;919751;-65
2023/11/21 00:23:26;;;;;;;5.83;3.60;;;;;;;;;;776828;179;816454;-67
2023/11/21 00:25:52;;;;;;;6.40;3.90;;;;;;;;;;780528;179;932474;-65
2023/11/21 00:28:17;;;;;;;6.20;3.67;;;;;;;;;;779773;179;908631;-66
2023/11/21 00:30:43;;;;;;;6.60;3.50;;;;;;;;;;774413;179;918585;-64
2023/11/21 00:33:09;;;;;;;7.27;4.10;;;;;;;;;;775870;178;922172;-68
2023/11/21 00:35:35;;;;;;;5.10;3.63;;;;;;;;;;778023;179;914701;-65
2023/11/21 00:38:01;;;;;;;8.02;3.78;;;;;;;;;;776066;176;915612;-65
2023/11/21 00:40:27;;;;;;;5.73;3.40;;;;;;;;;;776574;179;917181;-67
2023/11/21 00:42:52;;;;;;;13.53;3.77;;;;;;;;;;779300;179;919189;-64
2023/11/21 00:45:18;;;;;;;10.43;5.62;;;;;;;;;;779328;179;924457;-65
2023/11/21 00:47:44;;;;;;;8.07;4.07;;;;;;;;;;777065;179;916395;-65
2023/11/21 00:50:10;;;;;;;5.57;3.50;;;;;;;;;;778723;179;887132;-66
2023/11/21 00:52:36;;;;;;;6.97;4.07;;;;;;;;;;777427;179;919037;-66
2023/11/21 00:55:02;;;;;;;9.17;4.07;;;;;;;;;;776273;178;918396;-64
2023/11/21 00:57:27;;;;;;;6.33;4.23;;;;;;;;;;781149;176;908276;-64
2023/11/21 00:59:53;;;;;;;7.90;4.50;;;;;;;;;;779663;179;918742;-64
2023/11/21 01:02:19;;;;;;;8.80;4.50;;;;;;;;;;774614;179;1022144;-65
2023/11/21 01:04:45;;;;;;;8.57;4.70;;;;;;;;;;781669;179;909066;-66
2023/11/21 01:07:11;;;;;;;8.77;4.60;;;;;;;;;;775088;178;916664;-64
2023/11/21 01:09:37;;;;;;;7.47;3.87;;;;;;;;;;779154;178;819814;-66
2023/11/21 01:12:03;;;;;;;6.68;3.58;;;;;;;;;;775577;177;881634;-65
2023/11/21 01:14:29;;;;;;;6.30;4.17;;;;;;;;;;773007;181;916265;-66
2023/11/21 01:16:55;;;;;;;9.60;4.80;;;;;;;;;;775048;178;915367;-67
2023/11/21 01:19:20;;;;;;;9.13;4.73;;;;;;;;;;774412;178;910216;-66
2023/11/21 01:21:46;;;;;;;8.10;3.90;;;;;;;;;;779881;178;911183;-68
2023/11/21 01:24:12;;;;;;;7.93;3.30;;;;;;;;;;773282;178;895035;-67
2023/11/21 01:26:38;;;;;;;5.77;3.60;;;;;;;;;;776657;179;893153;-67
2023/11/21 01:29:04;;;;;;;6.03;4.30;;;;;;;;;;781426;178;860830;-67
2023/11/21 01:31:29;;;;;;;7.87;3.90;;;;;;;;;;772586;179;911377;-67
2023/11/21 01:33:56;;;;;;;6.40;3.67;;;;;;;;;;773401;178;916506;-67
2023/11/21 01:36:22;;;;;;;7.67;3.50;;;;;;;;;;776864;179;813629;-64
2023/11/21 01:38:49;;;;;;;10.33;3.73;;;;;;;;;;776499;179;913747;-67
2023/11/21 01:41:14;;;;;;;7.00;4.37;;;;;;;;;;778273;179;920045;-67
2023/11/21 01:43:40;;;;;;;9.13;4.20;;;;;;;;;;777212;179;817786;-65
2023/11/21 01:46:06;;;;;;;4.40;3.30;;;;;;;;;;785437;179;915495;-68
2023/11/21 01:48:32;;;;;;;11.13;3.70;;;;;;;;;;775745;180;921234;-65
2023/11/21 01:50:58;;;;;;;7.35;4.40;;;;;;;;;;777424;179;818940;-65
2023/11/21 01:53:24;;;;;;;6.60;3.77;;;;;;;;;;778777;180;921783;-67
2023/11/21 01:55:49;;;;;;;5.50;3.77;;;;;;;;;;780632;178;919316;-66
2023/11/21 01:58:16;;;;;;;6.97;4.00;;;;;;;;;;775710;179;919916;-65
2023/11/21 02:00:41;;;;;;;6.83;3.80;;;;;;;;;;782046;179;907890;-66
2023/11/21 02:03:07;;;;;;;8.43;4.93;;;;;;;;;;776958;179;919337;-66
2023/11/21 02:05:33;;;;;;;7.40;4.33;;;;;;;;;;775502;179;920387;-67
2023/11/21 02:07:59;;;;;;;16.30;4.50;;;;;;;;;;775446;175;917896;-66
2023/11/21 02:10:24;;;;;;;4.90;3.80;;;;;;;;;;770703;180;917722;-66
2023/11/21 02:12:50;;;;;;;5.73;4.00;;;;;;;;;;773558;178;903680;-67
2023/11/21 02:15:20;;;;;;;6.65;4.28;;;;;;;;;;778331;179;918985;-65
2023/11/21 02:17:44;;;;;;;6.20;3.73;;;;;;;;;;772810;180;925371;-66
2023/11/21 02:20:15;;;;;;;11.80;4.77;;;;;;;;;;777811;178;920658;-67
2023/11/21 02:22:36;;;;;;;9.63;4.40;;;;;;;;;;775853;179;920434;-64
2023/11/21 02:25:02;;;;;;;9.90;4.30;;;;;;;;;;783637;178;865885;-65
2023/11/21 02:27:27;;;;;;;8.43;4.17;;;;;;;;;;779866;176;919105;-64
2023/11/21 02:29:54;;;;;;;8.10;4.20;;;;;;;;;;774607;178;919830;-65
2023/11/21 02:32:22;;;;;;;9.95;3.95;;;;;;;;;;772611;179;1021367;-66
2023/11/21 02:34:46;;;;;;;11.90;5.17;;;;;;;;;;768092;180;916948;-68
2023/11/21 02:37:11;;;;;;;7.27;4.83;;;;;;;;;;772414;178;919328;-67
2023/11/21 02:39:37;;;;;;;7.75;4.57;;;;;;;;;;780256;179;815572;-65
2023/11/21 02:42:03;;;;;;;7.37;3.77;;;;;;;;;;783961;175;919136;-67
2023/11/21 02:44:29;;;;;;;8.93;4.30;;;;;;;;;;777002;179;918497;-65
2023/11/21 02:46:57;;;;;;;7.13;4.03;;;;;;;;;;776730;180;919316;-66
2023/11/21 02:49:21;;;;;;;7.10;4.10;;;;;;;;;;779272;179;918541;-64
2023/11/21 02:51:47;;;;;;;8.20;4.07;;;;;;;;;;774265;179;923463;-65
2023/11/21 02:54:12;;;;;;;6.60;3.60;;;;;;;;;;775582;179;927652;-67
2023/11/21 02:56:39;;;;;;;9.40;3.87;;;;;;;;;;779170;179;919011;-68
2023/11/21 02:59:04;;;;;;;5.67;3.70;;;;;;;;;;776704;178;816766;-67
2023/11/21 03:01:30;;;;;;;7.90;3.87;;;;;;;;;;781115;178;816617;-65
2023/11/21 03:03:56;;;;;;;5.80;3.80;;;;;;;;;;771515;179;930337;-67
2023/11/21 03:06:22;;;;;;;11.00;3.80;;;;;;;;;;780955;178;918586;-65
2023/11/21 03:08:47;;;;;;;11.30;4.33;;;;;;;;;;767386;179;917766;-67
2023/11/21 03:11:13;;;;;;;7.77;4.07;;;;;;;;;;771817;179;916477;-67
2023/11/21 03:13:40;;;;;;;10.50;4.80;;;;;;;;;;782504;179;920459;-65
2023/11/21 03:16:06;;;;;;;5.60;3.43;;;;;;;;;;779944;179;920272;-65
2023/11/21 03:18:31;;;;;;;9.80;4.70;;;;;;;;;;774550;179;918830;-64
2023/11/21 03:20:57;;;;;;;8.93;4.50;;;;;;;;;;784488;179;816876;-65
2023/11/21 03:23:23;;;;;;;10.10;4.70;;;;;;;;;;768308;179;920675;-67
2023/11/21 03:25:49;;;;;;;6.37;3.70;;;;;;;;;;772601;179;919092;-65
2023/11/21 03:28:15;;;;;;;5.80;3.87;;;;;;;;;;781384;179;816040;-65
2023/11/21 03:30:41;;;;;;;6.30;3.70;;;;;;;;;;776389;178;910227;-66
2023/11/21 03:33:07;;;;;;;6.50;3.60;;;;;;;;;;779084;178;919352;-69
2023/11/21 03:35:33;;;;;;;10.30;4.20;;;;;;;;;;775357;178;919324;-65
2023/11/21 03:37:58;;;;;;;8.87;4.40;;;;;;;;;;780248;179;919390;-67
2023/11/21 03:40:24;;;;;;;6.33;3.83;;;;;;;;;;775094;179;930723;-66
2023/11/21 03:42:50;;;;;;;7.20;4.90;;;;;;;;;;778011;178;918683;-65
2023/11/21 03:45:16;;;;;;;5.40;4.10;;;;;;;;;;781926;179;815471;-64
2023/11/21 03:47:42;;;;;;;9.93;5.03;;;;;;;;;;777210;178;919717;-64
2023/11/21 03:50:09;;;;;;;7.00;4.37;;;;;;;;;;771516;179;915485;-64
2023/11/21 03:52:34;;;;;;;9.20;4.93;;;;;;;;;;782304;176;713767;-64
2023/11/21 03:54:59;;;;;;;8.20;4.60;;;;;;;;;;777443;179;918379;-66
2023/11/21 03:57:25;;;;;;;5.97;4.37;;;;;;;;;;781605;179;915951;-67
2023/11/21 03:59:51;;;;;;;9.30;3.73;;;;;;;;;;783447;178;917128;-65
2023/11/21 04:02:17;;;;;;;7.57;3.93;;;;;;;;;;780659;177;917126;-66
2023/11/21 04:04:43;;;;;;;8.43;4.30;;;;;;;;;;772768;179;918583;-67
2023/11/21 04:07:09;;;;;;;5.87;3.90;;;;;;;;;;775140;179;918871;-67
2023/11/21 04:09:36;;;;;;;6.80;3.43;;;;;;;;;;781088;179;919026;-67
2023/11/21 04:12:00;;;;;;;7.50;3.57;;;;;;;;;;777465;179;925699;-67
2023/11/21 04:14:26;;;;;;;11.30;3.80;;;;;;;;;;775114;179;918716;-67
2023/11/21 04:16:53;;;;;;;4.78;3.85;;;;;;;;;;779213;178;918373;-68
2023/11/21 04:19:18;;;;;;;7.00;4.03;;;;;;;;;;775758;179;920468;-65
2023/11/21 04:21:44;;;;;;;4.67;3.43;;;;;;;;;;776786;179;916924;-65
2023/11/21 04:24:10;;;;;;;9.23;4.72;;;;;;;;;;775443;179;919741;-65
2023/11/21 04:26:36;;;;;;;6.07;4.60;;;;;;;;;;776485;179;929686;-65
2023/11/21 04:29:02;;;;;;;10.10;4.73;;;;;;;;;;780053;175;918852;-67
2023/11/21 04:31:28;;;;;;;8.10;5.37;;;;;;;;;;776879;180;917094;-65
2023/11/21 04:33:53;;;;;;;7.50;4.97;;;;;;;;;;776320;179;915544;-67
2023/11/21 04:36:19;;;;;;;9.50;5.63;;;;;;;;;;777615;178;907390;-67
2023/11/21 04:38:45;;;;;;;8.03;4.53;;;;;;;;;;774051;178;919231;-67
2023/11/21 04:41:11;;;;;;;6.70;5.23;;;;;;;;;;784763;178;717102;-65
2023/11/21 04:43:37;;;;;;;9.10;5.50;;;;;;;;;;780048;176;822340;-65
2023/11/21 04:46:03;;;;;;;8.57;4.60;;;;;;;;;;776790;178;920576;-68
2023/11/21 04:48:29;;;;;;;8.13;4.00;;;;;;;;;;781106;178;916003;-67
2023/11/21 04:50:54;;;;;;;14.33;4.10;;;;;;;;;;776957;178;913151;-66
2023/11/21 04:53:20;;;;;;;6.87;4.60;;;;;;;;;;775838;178;941004;-67
2023/11/21 04:55:48;;;;;;;8.43;3.93;;;;;;;;;;777681;179;850809;-65
2023/11/21 04:58:12;;;;;;;5.80;4.10;;;;;;;;;;784676;178;913919;-64
2023/11/21 05:00:38;;;;;;;4.73;3.20;;;;;;;;;;776457;178;817509;-69
2023/11/21 05:03:04;;;;;;;6.67;4.10;;;;;;;;;;775172;179;919064;-67
2023/11/21 05:05:30;;;;;;;6.00;3.60;;;;;;;;;;777759;179;918695;-65
2023/11/21 05:07:56;;;;;;;6.17;3.43;;;;;;;;;;776135;179;911346;-68
2023/11/21 05:10:22;;;;;;;5.43;3.70;;;;;;;;;;780522;179;817074;-66
2023/11/21 05:12:50;;;;;;;5.68;3.35;;;;;;;;;;785430;179;918085;-65
2023/11/21 05:15:14;;;;;;;7.13;4.10;;;;;;;;;;781051;179;918970;-65
2023/11/21 05:17:42;;;;;;;5.27;3.43;;;;;;;;;;777225;179;816575;-67
2023/11/21 05:20:09;;;;;;;7.87;4.20;;;;;;;;;;778864;179;816974;-65
2023/11/21 05:22:34;;;;;;;7.77;3.30;;;;;;;;;;785003;179;639184;-67
2023/11/21 05:25:00;;;;;;;5.03;3.07;;;;;;;;;;780540;179;623033;-67
2023/11/21 05:27:26;;;;;;;9.90;3.83;;;;;;;;;;783895;179;636587;-66
2023/11/21 05:29:52;;;;;;;6.67;3.50;;;;;;;;;;788007;179;622146;-67
2023/11/21 05:32:18;;;;;;;4.60;3.33;;;;;;;;;;780839;177;915300;-67
2023/11/21 05:34:43;;;;;;;9.63;3.60;;;;;;;;;;781217;179;632910;-66
2023/11/21 05:37:09;;;;;;;6.23;4.27;;;;;;;;;;781202;179;934762;-64
2023/11/21 05:39:35;;;;;;;6.67;3.83;;;;;;;;;;774208;179;919455;-67
2023/11/21 05:42:01;;;;;;;10.50;4.47;;;;;;;;;;777344;179;827868;-67
2023/11/21 05:44:27;;;;;;;5.60;3.40;;;;;;;;;;778613;179;918912;-64
2023/11/21 05:46:53;;;;;;;6.90;4.27;;;;;;;;;;774845;180;921968;-64
2023/11/21 05:49:21;;;;;;;6.27;4.17;;;;;;;;;;776297;178;918976;-67
2023/11/21 05:51:45;;;;;;;5.17;3.27;;;;;;;;;;780883;179;630109;-65
2023/11/21 05:54:11;;;;;;;8.50;3.67;;;;;;;;;;786323;177;623494;-67
2023/11/21 05:56:37;;;;;;;7.20;4.17;;;;;;;;;;780333;178;627077;-67
2023/11/21 05:59:03;;;;;;;6.07;3.53;;;;;;;;;;778769;178;625342;-69
2023/11/21 06:01:28;;;;;;;5.33;4.20;;;;;;;;;;783379;178;642213;-64
2023/11/21 06:03:54;;;;;;;7.10;3.33;;;;;;;;;;769983;177;919121;-68
2023/11/21 06:06:22;;;;;;;6.87;3.20;;;;;;;;;;774950;178;915369;-67
2023/11/21 06:08:47;;;;;;;3.95;3.00;;;;;;;;;;780317;179;918761;-66
2023/11/21 06:11:13;;;;;;;13.50;3.63;;;;;;;;;;771563;180;913821;-67
2023/11/21 06:13:38;;;;;;;8.80;4.30;;;;;;;;;;771290;179;920938;-67
2023/11/21 06:16:04;;;;;;;4.83;3.20;;;;;;;;;;779452;179;816662;-65
2023/11/21 06:18:30;;;;;;;8.80;4.33;;;;;;;;;;779867;179;920989;-64
2023/11/21 06:20:56;;;;;;;8.80;5.60;;;;;;;;;;778517;179;814405;-64
2023/11/21 06:23:22;;;;;;;7.00;4.57;;;;;;;;;;776181;178;813470;-65
2023/11/21 06:25:48;;;;;;;8.20;4.87;;;;;;;;;;781152;178;909705;-67
2023/11/21 06:28:17;;;;;;;8.10;4.80;;;;;;;;;;775961;176;922651;-65
2023/11/21 06:30:40;;;;;;;9.17;5.17;;;;;;;;;;774750;179;917040;-68
2023/11/21 06:33:07;;;;;;;14.07;6.47;;;;;;;;;;779949;179;920583;-65
2023/11/21 06:35:33;;;;;;;8.23;6.30;;;;;;;;;;774051;179;905685;-67
2023/11/21 06:37:57;;;;;;;10.70;6.07;;;;;;;;;;778567;179;921193;-65
2023/11/21 06:40:24;;;;;;;18.83;7.17;;;;;;;;;;777659;179;813291;-68
2023/11/21 06:42:49;;;;;;;17.33;6.37;;;;;;;;;;782033;179;911727;-65
2023/11/21 06:45:15;;;;;;;11.47;5.90;;;;;;;;;;771208;179;921972;-68
2023/11/21 06:47:41;;;;;;;11.97;6.83;;;;;;;;;;776970;175;911944;-66
2023/11/21 06:50:08;;;;;;;15.57;6.90;;;;;;;;;;779740;179;911029;-67
2023/11/21 06:52:33;;;;;;;15.73;7.20;;;;;;;;;;778536;177;921598;-67
2023/11/21 06:54:59;;;;;;;16.60;8.13;;;;;;;;;;777713;179;905665;-67
2023/11/21 06:57:25;;;;;;;11.17;5.10;;;;;;;;;;781946;179;821186;-67
2023/11/21 06:59:51;;;;;;;7.60;4.90;;;;;;;;;;777392;179;925845;-65
2023/11/21 07:02:18;;;;;;;8.20;4.90;;;;;;;;;;774664;179;919425;-65
2023/11/21 07:04:43;;;;;;;11.40;5.67;;;;;;;;;;774963;179;921138;-67
2023/11/21 07:07:08;;;;;;;8.63;5.63;;;;;;;;;;772411;177;846064;-66
2023/11/21 07:09:34;;;;;;;14.70;6.53;;;;;;;;;;778415;178;917705;-65
2023/11/21 07:12:01;;;;;;;8.77;5.28;;;;;;;;;;779453;176;881730;-68
2023/11/21 07:14:26;;;;;;;11.53;5.30;;;;;;;;;;782949;178;916981;-68
2023/11/21 07:16:52;;;;;;;9.63;5.60;;;;;;;;;;776961;178;888316;-67
2023/11/21 07:19:18;;;;;;;9.50;5.47;;;;;;;;;;780069;175;917484;-66
2023/11/21 07:21:43;;;;;;;8.77;5.60;;;;;;;;;;783475;178;913671;-68
2023/11/21 07:24:11;;;;;;;11.00;4.33;;;;;;;;;;778136;178;916765;-67
2023/11/21 07:26:35;;;;;;;10.07;5.90;;;;;;;;;;777288;179;919673;-67
2023/11/21 07:29:02;;;;;;;10.30;6.07;;;;;;;;;;782234;179;818567;-66
2023/11/21 07:31:27;;;;;;;7.90;5.03;;;;;;;;;;781122;179;919072;-66
2023/11/21 07:33:53;;;;;;;12.83;5.43;;;;;;;;;;778843;178;755511;-65
2023/11/21 07:36:22;;;;;;;6.20;4.37;;;;;;;;;;772367;179;916621;-67
2023/11/21 07:38:48;;;;;;;8.17;4.97;;;;;;;;;;779511;179;918067;-67
2023/11/21 07:41:17;;;;;;;8.77;4.77;;;;;;;;;;776033;179;924399;-64
2023/11/21 07:43:42;;;;;;;7.13;5.00;;;;;;;;;;772321;179;918784;-66
2023/11/21 07:46:07;;;;;;;7.50;4.93;;;;;;;;;;781654;179;918310;-65
2023/11/21 07:48:33;;;;;;;9.47;3.97;;;;;;;;;;775125;179;918650;-67
2023/11/21 07:50:59;;;;;;;8.60;4.28;;;;;;;;;;780488;179;816446;-66
2023/11/21 07:53:28;;;;;;;6.23;4.20;;;;;;;;;;775265;176;918805;-66
2023/11/21 07:55:52;;;;;;;7.67;5.37;;;;;;;;;;771651;180;922315;-66
2023/11/21 07:58:18;;;;;;;8.30;4.57;;;;;;;;;;776037;179;820954;-66
2023/11/21 08:00:43;;;;;;;7.43;4.50;;;;;;;;;;775751;179;832211;-66
2023/11/21 08:03:09;;;;;;;11.37;5.63;;;;;;;;;;780226;179;916928;-68
2023/11/21 08:05:35;;;;;;;9.20;5.37;;;;;;;;;;773545;179;863787;-64
2023/11/21 08:08:01;;;;;;;7.33;4.30;;;;;;;;;;773751;179;918536;-64
2023/11/21 08:10:26;;;;;;;8.00;5.30;;;;;;;;;;782869;179;917294;-67
2023/11/21 08:12:53;;;;;;;8.77;4.67;;;;;;;;;;777480;179;917977;-66
2023/11/21 08:15:18;;;;;;;8.75;4.78;;;;;;;;;;776178;179;876998;-69
2023/11/21 08:17:44;;;;;;;12.37;5.37;;;;;;;;;;783006;175;846008;-67
2023/11/21 08:20:10;;;;;;;7.90;5.30;;;;;;;;;;778389;178;817730;-68
2023/11/21 08:22:36;;;;;;;5.93;4.13;;;;;;;;;;778132;178;918651;-65
2023/11/21 08:25:04;;;;;;;11.47;5.30;;;;;;;;;;780043;178;918180;-67
2023/11/21 08:27:28;;;;;;;10.87;6.03;;;;;;;;;;782925;176;918062;-67
2023/11/21 08:29:54;;;;;;;14.13;5.70;;;;;;;;;;775216;178;918241;-67
2023/11/21 08:32:20;;;;;;;12.13;5.27;;;;;;;;;;774624;178;918728;-67
2023/11/21 08:34:46;;;;;;;10.60;5.77;;;;;;;;;;784092;178;919074;-65
2023/11/21 08:37:12;;;;;;;7.93;5.03;;;;;;;;;;777611;179;918856;-68
2023/11/21 08:39:37;;;;;;;8.00;4.87;;;;;;;;;;774087;179;1021122;-67
2023/11/21 08:42:03;;;;;;;5.93;4.03;;;;;;;;;;780535;179;918313;-68
2023/11/21 08:44:30;;;;;;;9.57;5.03;;;;;;;;;;777265;179;929124;-67
2023/11/21 08:46:55;;;;;;;9.88;4.75;;;;;;;;;;776419;179;919380;-64
2023/11/21 08:49:21;;;;;;;9.37;5.53;;;;;;;;;;773320;179;921011;-64
2023/11/21 08:51:47;;;;;;;6.90;4.50;;;;;;;;;;775546;178;919800;-67
2023/11/21 08:54:13;;;;;;;5.80;4.50;;;;;;;;;;777336;179;891930;-67
2023/11/21 08:56:38;;;;;;;8.27;4.60;;;;;;;;;;773900;179;1023921;-67
2023/11/21 08:59:04;;;;;;;9.93;4.70;;;;;;;;;;779520;179;918924;-69
2023/11/21 09:01:31;;;;;;;5.23;4.13;;;;;;;;;;775790;179;917861;-67
2023/11/21 09:03:57;;;;;;;6.83;4.30;;;;;;;;;;772291;178;917501;-65
2023/11/21 09:06:23;;;;;;;7.93;4.80;;;;;;;;;;779873;179;790354;-67
2023/11/21 09:08:49;;;;;;;11.33;5.30;;;;;;;;;;774116;179;872910;-67
2023/11/21 09:11:14;;;;;;;9.43;6.00;;;;;;;;;;779258;179;816320;-68
2023/11/21 09:13:40;;;;;;;5.60;4.23;;;;;;;;;;776595;179;816157;-64
2023/11/21 09:16:06;;;;;;;8.40;4.90;;;;;;;;;;771008;180;920207;-64
2023/11/21 09:18:32;;;;;;;6.43;4.93;;;;;;;;;;775545;178;919576;-67
2023/11/21 09:20:58;;;;;;;7.03;4.17;;;;;;;;;;775300;179;872752;-67
2023/11/21 09:23:24;;;;;;;6.33;3.70;;;;;;;;;;781630;177;921367;-66
2023/11/21 09:25:51;;;;;;;9.90;5.10;;;;;;;;;;781026;179;817841;-67
2023/11/21 09:28:17;;;;;;;9.77;3.95;;;;;;;;;;776678;179;916159;-66
2023/11/21 09:30:41;;;;;;;8.60;4.77;;;;;;;;;;781967;178;827256;-67
2023/11/21 09:33:10;;;;;;;6.50;4.70;;;;;;;;;;779333;178;858517;-65
2023/11/21 09:35:33;;;;;;;7.50;5.07;;;;;;;;;;778691;178;881449;-65
2023/11/21 09:38:01;;;;;;;9.57;4.67;;;;;;;;;;779434;176;913094;-68
2023/11/21 09:40:25;;;;;;;10.27;3.60;;;;;;;;;;777200;179;884496;-65
2023/11/21 09:42:52;;;;;;;6.43;4.13;;;;;;;;;;778112;177;904855;-69
2023/11/21 09:45:20;;;;;;;7.37;4.83;;;;;;;;;;776098;178;906946;-67
2023/11/21 09:47:45;;;;;;;8.17;4.80;;;;;;;;;;782735;179;794927;-66
2023/11/21 09:50:11;;;;;;;12.77;5.10;;;;;;;;;;774534;179;920119;-65
2023/11/21 09:52:40;;;;;;;6.60;4.40;;;;;;;;;;771155;178;917937;-67
2023/11/21 09:55:07;;;;;;;6.30;4.60;;;;;;;;;;778579;179;911262;-67
2023/11/21 09:57:33;;;;;;;9.23;4.67;;;;;;;;;;773586;179;920645;-66
2023/11/21 09:59:59;;;;;;;10.00;4.80;;;;;;;;;;776284;179;918833;-67
2023/11/21 10:02:26;;;;;;;6.50;4.27;;;;;;;;;;777885;179;911582;-64
2023/11/21 10:04:52;;;;;;;5.90;4.10;;;;;;;;;;779764;179;915671;-68
2023/11/21 10:07:17;;;;;;;9.40;4.97;;;;;;;;;;773717;177;877185;-65
2023/11/21 10:09:43;;;;;;;7.37;4.57;;;;;;;;;;775186;179;913887;-66
2023/11/21 10:12:08;;;;;;;6.90;3.63;;;;;;;;;;779521;178;913285;-67
2023/11/21 10:14:34;;;;;;;9.37;4.93;;;;;;;;;;776418;179;919069;-65
2023/11/21 10:17:00;;;;;;;6.87;4.57;;;;;;;;;;773527;179;919192;-64
2023/11/21 10:19:27;;;;;;;11.57;5.13;;;;;;;;;;781801;179;1023415;-64
2023/11/21 10:21:52;;;;;;;12.27;5.70;;;;;;;;;;775376;179;921368;-66
2023/11/21 10:24:18;;;;;;;7.93;5.27;;;;;;;;;;771816;179;932442;-65
2023/11/21 10:26:45;;;;;;;11.43;5.30;;;;;;;;;;773670;179;919005;-64
2023/11/21 10:29:12;;;;;;;7.70;5.43;;;;;;;;;;770643;180;921302;-66
2023/11/21 10:31:36;;;;;;;7.10;5.23;;;;;;;;;;774455;178;918635;-65
2023/11/21 10:34:07;;;;;;;6.70;3.93;;;;;;;;;;774947;178;919875;-65
2023/11/21 10:36:33;;;;;;;7.13;4.47;;;;;;;;;;782466;179;917504;-65
2023/11/21 10:38:59;;;;;;;6.87;4.60;;;;;;;;;;773718;179;911917;-64
2023/11/21 10:41:25;;;;;;;10.80;4.47;;;;;;;;;;774660;178;916839;-64
2023/11/21 10:43:51;;;;;;;6.03;4.53;;;;;;;;;;776482;175;915071;-66
2023/11/21 10:46:16;;;;;;;15.03;4.20;;;;;;;;;;775107;178;918340;-66
2023/11/21 10:48:42;;;;;;;9.63;4.47;;;;;;;;;;776663;178;923054;-65
2023/11/21 10:51:09;;;;;;;6.50;3.67;;;;;;;;;;776510;178;922522;-64
2023/11/21 10:53:35;;;;;;;6.70;4.17;;;;;;;;;;777338;178;917914;-67
2023/11/21 10:56:02;;;;;;;8.27;4.40;;;;;;;;;;780201;178;920432;-63
2023/11/21 10:58:28;;;;;;;7.33;4.97;;;;;;;;;;772535;175;910501;-64
2023/11/21 11:00:54;;;;;;;5.90;4.77;;;;;;;;;;781722;179;919331;-65
2023/11/21 11:03:19;;;;;;;7.73;4.53;;;;;;;;;;777450;176;917245;-64
2023/11/21 11:05:51;;;;;;;9.90;4.93;;;;;;;;;;777552;179;872700;-64
2023/11/21 11:08:12;;;;;;;8.90;5.00;;;;;;;;;;775934;179;918532;-65
2023/11/21 11:10:38;;;;;;;8.23;5.50;;;;;;;;;;774540;180;924354;-64
2023/11/21 11:13:04;;;;;;;9.90;5.83;;;;;;;;;;778950;178;920916;-65
2023/11/21 11:15:30;;;;;;;8.80;5.50;;;;;;;;;;779426;179;919445;-64
2023/11/21 11:17:57;;;;;;;9.77;5.60;;;;;;;;;;781404;179;919005;-65
2023/11/21 11:20:22;;;;;;;25.27;5.80;;;;;;;;;;775679;179;919478;-64
2023/11/21 11:23:06;;;;;;;9.03;4.87;;;;;;;;;;775469;176;921110;-64
2023/11/21 11:25:47;;;;;;;7.73;4.80;;;;;;;;;;752161;179;924998;-65
2023/11/21 11:28:13;;;;;;;8.70;5.13;;;;;;;;;;766010;179;897412;-66
2023/11/21 11:31:00;;;;;;;8.30;4.60;;;;;;;;;;784296;179;816742;-65
2023/11/21 11:33:36;;;;;;;9.50;5.23;;;;;;;;;;779113;179;919859;-66
2023/11/21 11:36:05;;;;;;;9.37;5.53;;;;;;;;;;778810;179;756647;-64
2023/11/21 11:38:31;;;;;;;10.30;5.63;;;;;;;;;;776798;178;827480;-65
2023/11/21 11:40:57;;;;;;;8.23;5.40;;;;;;;;;;776684;179;817144;-66
2023/11/21 11:43:25;;;;;;;9.90;5.33;;;;;;;;;;773743;179;920504;-65
2023/11/21 11:45:52;;;;;;;11.70;5.40;;;;;;;;;;770076;180;918540;-64
2023/11/21 11:48:16;;;;;;;10.33;5.80;;;;;;;;;;777067;178;918688;-67
2023/11/21 11:50:42;;;;;;;8.90;5.15;;;;;;;;;;778711;179;818211;-65
2023/11/21 11:53:12;;;;;;;7.50;4.80;;;;;;;;;;780756;178;919199;-65
2023/11/21 11:55:38;;;;;;;11.17;6.03;;;;;;;;;;778466;178;919259;-67
2023/11/21 11:58:04;;;;;;;8.13;5.40;;;;;;;;;;776653;178;919720;-65
2023/11/21 12:00:39;;;;;;;8.23;5.77;;;;;;;;;;774258;178;816501;-67
2023/11/21 12:03:03;;;;;;;8.10;5.37;;;;;;;;;;774073;179;817636;-65
2023/11/21 12:05:29;;;;;;;7.13;5.70;;;;;;;;;;778842;178;919613;-67
2023/11/21 12:07:57;;;;;;;7.68;5.07;;;;;;;;;;778274;176;918457;-65
2023/11/21 12:10:22;;;;;;;12.40;6.27;;;;;;;;;;781373;178;918181;-66
2023/11/21 12:12:47;;;;;;;9.50;5.20;;;;;;;;;;776127;179;919609;-65
2023/11/21 12:15:13;;;;;;;8.80;5.30;;;;;;;;;;772066;179;917167;-68
2023/11/21 12:17:39;;;;;;;8.87;6.07;;;;;;;;;;778722;179;1020791;-66
2023/11/21 12:20:13;;;;;;;8.53;5.37;;;;;;;;;;769997;181;919738;-65
2023/11/21 12:22:31;;;;;;;8.53;5.77;;;;;;;;;;774873;179;918951;-65
2023/11/21 12:24:57;;;;;;;8.63;5.60;;;;;;;;;;776319;179;922347;-65
2023/11/21 12:27:23;;;;;;;7.43;4.70;;;;;;;;;;782058;178;814503;-66
2023/11/21 12:29:49;;;;;;;10.57;4.80;;;;;;;;;;773050;179;916747;-67
2023/11/21 12:32:18;;;;;;;15.37;6.43;;;;;;;;;;771736;179;815376;-66
2023/11/21 12:34:40;;;;;;;10.63;6.90;;;;;;;;;;783383;179;914396;-66
2023/11/21 12:37:06;;;;;;;7.83;6.20;;;;;;;;;;776639;175;915950;-67
2023/11/21 12:39:32;;;;;;;10.17;5.67;;;;;;;;;;779524;179;919759;-66
2023/11/21 12:42:00;;;;;;;10.32;5.00;;;;;;;;;;781149;179;924152;-66
2023/11/21 12:44:25;;;;;;;8.93;5.23;;;;;;;;;;770381;180;918682;-65
2023/11/21 12:46:52;;;;;;;5.60;3.97;;;;;;;;;;779489;178;918152;-66
2023/11/21 12:49:18;;;;;;;8.20;5.70;;;;;;;;;;776163;179;985395;-64
2023/11/21 12:51:42;;;;;;;12.60;5.90;;;;;;;;;;783313;179;753970;-66
2023/11/21 12:54:09;;;;;;;8.80;4.80;;;;;;;;;;779529;179;918601;-66
2023/11/21 12:56:34;;;;;;;7.30;4.30;;;;;;;;;;776191;179;920859;-66
2023/11/21 12:59:01;;;;;;;9.30;5.00;;;;;;;;;;783849;179;830871;-65
2023/11/21 13:01:28;;;;;;;6.60;4.77;;;;;;;;;;777570;179;917089;-65
2023/11/21 13:03:51;;;;;;;7.17;5.30;;;;;;;;;;773749;176;904701;-67
2023/11/21 13:06:17;;;;;;;10.40;5.30;;;;;;;;;;782052;178;916064;-65
2023/11/21 13:08:44;;;;;;;8.73;5.13;;;;;;;;;;779767;177;817307;-67
2023/11/21 13:11:09;;;;;;;9.50;5.10;;;;;;;;;;780669;178;914991;-67
2023/11/21 13:13:35;;;;;;;6.27;4.50;;;;;;;;;;775951;176;936735;-66
2023/11/21 13:16:01;;;;;;;8.43;4.82;;;;;;;;;;780873;178;915333;-66
2023/11/21 13:18:26;;;;;;;7.80;5.60;;;;;;;;;;776464;178;919508;-67
2023/11/21 13:20:55;;;;;;;8.67;6.20;;;;;;;;;;777947;178;921192;-66
2023/11/21 13:23:20;;;;;;;16.13;6.20;;;;;;;;;;780882;179;819739;-67
2023/11/21 13:25:47;;;;;;;10.50;6.20;;;;;;;;;;774897;179;915666;-69
2023/11/21 13:28:12;;;;;;;13.23;6.53;;;;;;;;;;772826;179;920451;-67
2023/11/21 13:30:39;;;;;;;10.37;6.30;;;;;;;;;;780981;179;922075;-65
2023/11/21 13:33:06;;;;;;;10.57;6.27;;;;;;;;;;780751;179;909408;-67
2023/11/21 13:35:34;;;;;;;7.00;5.70;;;;;;;;;;780215;179;911706;-67
2023/11/21 13:37:59;;;;;;;10.47;6.10;;;;;;;;;;779878;179;1009630;-64
2023/11/21 13:40:26;;;;;;;9.80;6.43;;;;;;;;;;779574;179;840542;-67
2023/11/21 13:42:53;;;;;;;7.47;5.70;;;;;;;;;;779264;175;815361;-66
2023/11/21 13:45:18;;;;;;;9.20;6.57;;;;;;;;;;770688;179;919179;-67
2023/11/21 13:47:41;;;;;;;8.37;5.93;;;;;;;;;;778381;179;914652;-67
2023/11/21 13:50:16;;;;;;;8.03;6.00;;;;;;;;;;773193;178;919577;-65
2023/11/21 13:52:35;;;;;;;9.00;5.00;;;;;;;;;;771268;178;927666;-65
2023/11/21 13:55:02;;;;;;;11.83;5.57;;;;;;;;;;781221;179;711258;-65
2023/11/21 13:57:27;;;;;;;7.90;5.77;;;;;;;;;;777715;179;929287;-64
2023/11/21 13:59:51;;;;;;;8.37;5.40;;;;;;;;;;773641;179;919909;-66
2023/11/21 14:02:18;;;;;;;6.93;5.70;;;;;;;;;;776921;179;636696;-67
2023/11/21 14:07:25;;;;;;;11.33;6.73;;;;;;;;;;776155;179;916715;-65
2023/11/21 14:09:43;;;;;;;10.02;7.35;;;;;;;;;;771464;179;923830;-65
2023/11/21 14:12:07;;;;;;;10.83;6.70;;;;;;;;;;781072;179;919048;-65
2023/11/21 14:14:32;;;;;;;11.63;7.10;;;;;;;;;;777114;179;818497;-67
2023/11/21 14:16:58;;;;;;;11.87;7.33;;;;;;;;;;778530;176;920563;-65
2023/11/21 14:19:27;;;;;;;13.63;6.63;;;;;;;;;;781068;178;860091;-67
2023/11/21 14:21:49;;;;;;;12.80;7.17;;;;;;;;;;777337;180;628678;-68